createdAt,value
2023-03-17T00:00:31.501Z,58.86
2023-03-17T00:02:54.606Z,58.00
2023-03-17T00:05:30.134Z,59.09
2023-03-17T00:07:55.350Z,58.76
2023-03-17T00:10:25.213Z,57.87
2023-03-17T00:12:50.004Z,55.85
2023-03-17T00:15:14.941Z,56.05
2023-03-17T00:17:38.131Z,56.44
2023-03-17T00:20:00.873Z,56.18
2023-03-17T00:22:23.763Z,57.13
2023-03-17T00:24:46.330Z,57.52
2023-03-17T00:27:14.107Z,57.69
2023-03-17T00:29:36.743Z,56.96
2023-03-17T00:32:00.056Z,57.73
2023-03-17T00:34:23.455Z,56.99
2023-03-17T00:36:51.143Z,56.84
2023-03-17T00:41:38.420Z,55.84
2023-03-17T00:44:02.339Z,56.90
2023-03-17T00:46:29.077Z,55.89
2023-03-17T00:48:53.103Z,56.10
2023-03-17T00:51:16.741Z,55.68
2023-03-17T00:53:39.906Z,55.61
2023-03-17T00:56:02.660Z,56.40
2023-03-17T00:58:32.640Z,56.57
2023-03-17T01:00:56.301Z,56.72
2023-03-17T01:03:20.648Z,56.96
2023-03-17T01:05:44.559Z,57.09
2023-03-17T01:08:07.920Z,56.87
2023-03-17T01:10:30.895Z,56.65
2023-03-17T01:12:55.745Z,58.63
2023-03-17T01:15:19.993Z,58.61
2023-03-17T01:17:44.846Z,58.26
2023-03-17T01:20:11.278Z,57.91
2023-03-17T01:22:34.048Z,57.65
2023-03-17T01:24:56.769Z,57.65
2023-03-17T01:27:19.491Z,57.75
2023-03-17T01:29:43.116Z,58.62
2023-03-17T01:32:06.491Z,59.51
2023-03-17T01:34:29.390Z,59.27
2023-03-17T01:36:52.039Z,60.03
2023-03-17T01:39:15.288Z,60.65
2023-03-17T01:41:40.131Z,60.84
2023-03-17T01:44:02.983Z,61.59
2023-03-17T01:46:34.107Z,61.86
2023-03-17T01:49:19.520Z,62.32
2023-03-17T01:51:44.904Z,63.72
2023-03-17T01:54:11.940Z,63.00
2023-03-17T01:56:36.646Z,63.27
2023-03-17T01:59:04.275Z,63.26
2023-03-17T02:01:33.746Z,63.07
2023-03-17T02:03:57.137Z,63.39
2023-03-17T02:06:19.814Z,63.67
2023-03-17T02:08:42.471Z,63.81
2023-03-17T02:11:05.658Z,63.77
2023-03-17T02:13:28.516Z,63.58
2023-03-17T02:15:53.039Z,63.49
2023-03-17T02:18:23.706Z,63.59
2023-03-17T02:20:46.671Z,64.48
2023-03-17T02:23:11.886Z,64.26
2023-03-17T02:25:36.879Z,63.90
2023-03-17T02:28:03.902Z,63.41
2023-03-17T02:30:26.868Z,63.76
2023-03-17T02:32:50.499Z,63.69
2023-03-17T02:35:14.045Z,63.74
2023-03-17T02:37:38.661Z,64.58
2023-03-17T02:40:01.911Z,64.64
2023-03-17T02:42:24.992Z,63.97
2023-03-17T02:44:48.758Z,63.45
2023-03-17T02:47:12.257Z,63.86
2023-03-17T02:49:35.823Z,63.90
2023-03-17T02:51:58.462Z,64.29
2023-03-17T02:54:21.092Z,64.23
2023-03-17T02:56:43.830Z,64.00
2023-03-17T02:59:07.298Z,65.46
2023-03-17T03:01:30.993Z,64.87
2023-03-17T03:03:53.851Z,64.15
2023-03-17T03:06:16.922Z,63.63
2023-03-17T03:08:39.561Z,63.17
2023-03-17T03:11:02.674Z,63.35
2023-03-17T03:13:26.253Z,63.76
2023-03-17T03:15:49.184Z,64.12
2023-03-17T03:18:13.152Z,63.47
2023-03-17T03:20:36.658Z,63.73
2023-03-17T03:22:59.458Z,64.61
2023-03-17T03:25:22.302Z,65.28
2023-03-17T03:27:45.008Z,64.36
2023-03-17T03:30:08.655Z,64.28
2023-03-17T03:32:31.750Z,63.64
2023-03-17T03:34:54.374Z,63.12
2023-03-17T03:37:17.267Z,64.08
2023-03-17T03:39:39.849Z,64.93
2023-03-17T03:42:02.433Z,64.88
2023-03-17T03:44:25.144Z,65.21
2023-03-17T03:46:47.825Z,65.11
2023-03-17T03:49:10.732Z,63.61
2023-03-17T03:51:33.478Z,63.54
2023-03-17T03:53:56.164Z,63.09
2023-03-17T03:56:18.726Z,62.40
2023-03-17T03:58:41.956Z,62.29
2023-03-17T04:01:06.255Z,62.60
2023-03-17T04:03:28.909Z,63.25
2023-03-17T04:05:51.865Z,63.56
2023-03-17T04:08:14.499Z,64.29
2023-03-17T04:10:37.411Z,65.73
2023-03-17T04:13:00.226Z,66.09
2023-03-17T04:15:23.143Z,65.79
2023-03-17T04:17:46.516Z,65.65
2023-03-17T04:20:10.799Z,66.19
2023-03-17T04:22:33.802Z,66.14
2023-03-17T04:24:56.602Z,65.55
2023-03-17T04:27:19.350Z,65.93
2023-03-17T04:29:43.055Z,66.17
2023-03-17T04:32:05.854Z,66.28
2023-03-17T04:34:28.530Z,66.34
2023-03-17T04:36:51.656Z,67.43
2023-03-17T04:39:15.766Z,66.55
2023-03-17T04:41:38.940Z,65.96
2023-03-17T04:44:01.641Z,66.09
2023-03-17T04:46:24.235Z,65.33
2023-03-17T04:48:46.988Z,65.15
2023-03-17T04:51:11.655Z,66.37
2023-03-17T04:53:35.105Z,67.40
2023-03-17T04:55:57.747Z,67.48
2023-03-17T04:58:30.413Z,67.28
2023-03-17T05:00:53.821Z,66.11
2023-03-17T05:03:26.429Z,65.31
2023-03-17T05:05:50.812Z,65.38
2023-03-17T05:08:13.806Z,66.25
2023-03-17T05:10:36.668Z,66.71
2023-03-17T05:12:59.458Z,66.44
2023-03-17T05:15:22.116Z,66.03
2023-03-17T05:17:44.762Z,65.64
2023-03-17T05:20:08.630Z,65.77
2023-03-17T05:22:31.801Z,63.43
2023-03-17T05:24:54.447Z,61.60
2023-03-17T05:27:17.016Z,59.12
2023-03-17T05:29:39.624Z,56.18
2023-03-17T05:32:02.160Z,56.12
2023-03-17T05:34:24.772Z,56.61
2023-03-17T05:36:47.369Z,57.16
2023-03-17T05:39:09.929Z,57.51
2023-03-17T05:41:33.868Z,56.16
2023-03-17T05:43:56.915Z,55.61
2023-03-17T05:46:22.464Z,54.80
2023-03-17T05:48:45.109Z,53.16
2023-03-17T05:51:07.878Z,51.88
2023-03-17T05:53:31.300Z,52.09
2023-03-17T05:55:54.113Z,52.77
2023-03-17T05:58:17.139Z,52.69
2023-03-17T06:00:39.911Z,54.72
2023-03-17T06:03:03.938Z,54.61
2023-03-17T06:05:27.265Z,54.45
2023-03-17T06:07:54.794Z,54.52
2023-03-17T06:10:18.941Z,53.12
2023-03-17T06:12:41.957Z,53.37
2023-03-17T06:15:05.661Z,55.79
2023-03-17T06:17:28.788Z,56.70
2023-03-17T06:19:51.416Z,57.46
2023-03-17T06:22:14.192Z,57.39
2023-03-17T06:24:37.017Z,53.41
2023-03-17T06:26:59.932Z,50.99
2023-03-17T06:29:22.855Z,49.26
2023-03-17T06:31:50.605Z,47.32
2023-03-17T06:34:13.361Z,45.65
2023-03-17T06:36:38.508Z,45.47
2023-03-17T06:39:02.134Z,45.29
2023-03-17T06:41:25.246Z,44.03
2023-03-17T06:43:48.419Z,43.27
2023-03-17T06:46:11.722Z,42.22
2023-03-17T06:48:35.181Z,44.06
2023-03-17T06:50:57.933Z,45.90
2023-03-17T06:53:21.949Z,47.67
2023-03-17T06:55:45.155Z,46.88
2023-03-17T06:58:10.765Z,46.35
2023-03-17T07:00:33.653Z,45.54
2023-03-17T07:03:00.225Z,44.45
2023-03-17T07:05:34.015Z,43.59
2023-03-17T07:08:02.444Z,42.96
2023-03-17T07:10:26.931Z,42.98
2023-03-17T07:12:52.327Z,41.15
2023-03-17T07:15:17.385Z,41.58
2023-03-17T07:17:40.559Z,42.77
2023-03-17T07:20:04.123Z,43.31
2023-03-17T07:22:27.201Z,42.62
2023-03-17T07:24:50.436Z,42.74
2023-03-17T07:27:14.470Z,43.01
2023-03-17T07:29:37.616Z,43.85
2023-03-17T07:32:01.395Z,43.39
2023-03-17T07:34:24.662Z,42.80
2023-03-17T07:36:47.362Z,41.97
2023-03-17T07:39:12.104Z,43.12
2023-03-17T07:41:36.781Z,41.85
2023-03-17T07:44:01.878Z,41.89
2023-03-17T07:46:25.105Z,39.14
2023-03-17T07:48:48.343Z,38.88
2023-03-17T07:51:35.680Z,38.89
2023-03-17T07:54:19.241Z,37.85
2023-03-17T07:56:43.633Z,36.90
2023-03-17T07:59:08.870Z,36.25
2023-03-17T08:01:31.629Z,34.88
2023-03-17T08:03:56.644Z,35.46
2023-03-17T08:06:19.568Z,34.36
2023-03-17T08:08:42.247Z,32.07
2023-03-17T08:11:05.755Z,30.82
2023-03-17T08:13:28.887Z,32.49
2023-03-17T08:15:52.912Z,33.07
2023-03-17T08:18:15.860Z,34.40
2023-03-17T08:20:39.249Z,35.66
2023-03-17T08:23:02.640Z,35.70
2023-03-17T08:25:25.201Z,38.31
2023-03-17T08:27:49.019Z,38.52
2023-03-17T08:30:12.916Z,39.47
2023-03-17T08:32:35.824Z,40.81
2023-03-17T08:34:58.561Z,41.50
2023-03-17T08:37:22.330Z,40.98
2023-03-17T08:39:45.559Z,41.15
2023-03-17T08:42:08.404Z,40.89
2023-03-17T08:44:31.352Z,40.01
2023-03-17T08:46:54.131Z,39.26
2023-03-17T08:49:17.655Z,38.58
2023-03-17T08:51:40.917Z,38.78
2023-03-17T08:54:04.184Z,36.98
2023-03-17T08:56:27.184Z,36.55
2023-03-17T08:58:52.386Z,34.26
2023-03-17T09:01:16.193Z,34.42
2023-03-17T09:03:40.901Z,35.07
2023-03-17T09:06:07.146Z,34.89
2023-03-17T09:08:29.776Z,33.82
2023-03-17T09:10:54.415Z,33.97
2023-03-17T09:13:17.829Z,33.81
2023-03-17T09:15:42.463Z,33.45
2023-03-17T09:18:05.866Z,35.15
2023-03-17T09:20:29.514Z,35.93
2023-03-17T09:22:54.358Z,35.57
2023-03-17T09:25:17.896Z,33.75
2023-03-17T09:27:40.746Z,33.80
2023-03-17T09:30:03.647Z,33.77
2023-03-17T09:32:26.550Z,33.25
2023-03-17T09:34:51.503Z,34.17
2023-03-17T09:37:14.711Z,34.51
2023-03-17T09:39:37.550Z,35.19
2023-03-17T09:42:18.722Z,33.84
2023-03-17T09:44:56.700Z,34.46
2023-03-17T09:47:25.525Z,35.04
2023-03-17T09:49:51.812Z,34.28
2023-03-17T09:52:18.825Z,36.20
2023-03-17T09:54:43.017Z,33.63
2023-03-17T09:57:22.975Z,36.08
2023-03-17T09:59:51.974Z,34.26
2023-03-17T10:02:29.277Z,34.76
2023-03-17T10:04:54.166Z,32.87
2023-03-17T10:07:26.179Z,33.58
2023-03-17T10:10:01.530Z,33.87
2023-03-17T10:12:31.066Z,32.95
2023-03-17T10:15:04.443Z,32.43
2023-03-17T10:17:34.436Z,31.26
2023-03-17T10:20:06.931Z,31.66
2023-03-17T10:22:58.277Z,34.25
2023-03-17T10:25:24.541Z,33.75
2023-03-17T10:27:55.784Z,33.82
2023-03-17T10:30:22.252Z,33.99
2023-03-17T10:32:45.707Z,32.17
2023-03-17T10:35:10.783Z,31.96
2023-03-17T10:37:36.753Z,32.96
2023-03-17T10:40:00.378Z,31.85
2023-03-17T10:42:27.261Z,31.68
2023-03-17T10:44:59.254Z,33.59
2023-03-17T10:47:38.367Z,32.68
2023-03-17T10:50:17.041Z,32.30
2023-03-17T10:52:40.950Z,31.01
2023-03-17T10:55:07.430Z,30.96
2023-03-17T10:57:31.224Z,30.44
2023-03-17T10:59:58.958Z,31.26
2023-03-17T11:02:29.484Z,31.71
2023-03-17T11:04:58.765Z,31.37
2023-03-17T11:07:29.504Z,32.07
2023-03-17T11:09:57.038Z,30.50
2023-03-17T11:12:30.245Z,31.66
2023-03-17T11:15:17.884Z,31.38
2023-03-17T11:18:07.012Z,31.10
2023-03-17T11:20:50.421Z,30.37
2023-03-17T11:23:47.149Z,30.29
2023-03-17T11:26:18.098Z,30.32
2023-03-17T11:28:47.495Z,30.00
2023-03-17T11:31:29.891Z,29.76
2023-03-17T11:34:07.125Z,30.48
2023-03-17T11:36:33.629Z,29.77
2023-03-17T11:39:04.717Z,30.55
2023-03-17T11:41:51.155Z,30.54
2023-03-17T11:44:19.531Z,30.56
2023-03-17T11:47:21.525Z,30.25
2023-03-17T11:50:00.950Z,29.84
2023-03-17T11:52:57.202Z,31.02
2023-03-17T11:55:25.704Z,30.23
2023-03-17T11:57:58.974Z,32.24
2023-03-17T12:00:30.792Z,31.22
2023-03-17T12:03:49.053Z,31.10
2023-03-17T12:06:42.556Z,30.90
2023-03-17T12:09:18.651Z,31.40
2023-03-17T12:11:45.942Z,30.20
2023-03-17T12:14:42.146Z,30.65
2023-03-17T12:17:29.655Z,30.64
2023-03-17T12:20:16.582Z,30.60
2023-03-17T12:22:57.140Z,30.82
2023-03-17T12:25:37.557Z,29.93
2023-03-17T12:28:19.843Z,30.07
2023-03-17T12:31:21.278Z,31.26
2023-03-17T12:34:15.700Z,30.89
2023-03-17T12:36:39.431Z,31.05
2023-03-17T12:39:16.370Z,31.14
2023-03-17T12:41:56.867Z,31.10
2023-03-17T12:44:31.638Z,31.14
2023-03-17T12:47:19.473Z,31.47
2023-03-17T12:50:10.795Z,31.58
2023-03-17T12:52:39.677Z,31.17
2023-03-17T12:55:05.162Z,30.73
2023-03-17T12:57:30.945Z,30.43
2023-03-17T13:00:24.561Z,31.06
2023-03-17T13:03:07.287Z,30.68
2023-03-17T13:05:33.007Z,30.74
2023-03-17T13:08:01.690Z,30.59
2023-03-17T13:10:50.626Z,30.31
2023-03-17T13:13:35.738Z,30.62
2023-03-17T13:16:00.514Z,30.34
2023-03-17T13:18:43.925Z,30.86
2023-03-17T13:21:12.230Z,30.26
2023-03-17T13:23:34.835Z,30.13
2023-03-17T13:25:57.528Z,30.31
2023-03-17T13:28:45.446Z,30.97
2023-03-17T13:31:27.814Z,31.06
2023-03-17T13:33:54.899Z,31.61
2023-03-17T13:36:52.677Z,31.05
2023-03-17T13:39:31.159Z,30.56
2023-03-17T13:42:17.626Z,30.62
2023-03-17T13:44:57.525Z,30.79
2023-03-17T13:47:23.457Z,30.44
2023-03-17T13:49:50.973Z,30.48
2023-03-17T13:52:16.495Z,30.99
2023-03-17T13:54:49.116Z,31.07
2023-03-17T13:57:43.606Z,31.14
2023-03-17T14:00:25.973Z,30.43
2023-03-17T14:02:50.570Z,31.24
2023-03-17T14:05:19.726Z,30.20
2023-03-17T14:07:53.088Z,31.77
2023-03-17T14:10:21.634Z,30.81
2023-03-17T14:12:46.962Z,31.67
2023-03-17T14:15:21.724Z,31.90
2023-03-17T14:17:50.206Z,31.92
2023-03-17T14:20:15.692Z,31.69
2023-03-17T14:22:47.113Z,32.10
2023-03-17T14:25:17.215Z,31.75
2023-03-17T14:27:41.455Z,32.14
2023-03-17T14:30:19.624Z,32.01
2023-03-17T14:32:48.315Z,32.48
2023-03-17T14:35:14.259Z,32.42
2023-03-17T14:37:37.931Z,30.58
2023-03-17T14:40:00.576Z,30.35
2023-03-17T14:42:31.173Z,30.80
2023-03-17T14:45:06.690Z,30.96
2023-03-17T14:47:31.973Z,30.36
2023-03-17T14:49:54.863Z,30.87
2023-03-17T14:52:32.654Z,30.52
2023-03-17T14:54:58.805Z,30.21
2023-03-17T14:57:31.952Z,31.82
2023-03-17T15:00:00.614Z,31.29
2023-03-17T15:02:28.746Z,30.41
2023-03-17T15:05:01.460Z,31.11
2023-03-17T15:07:41.944Z,31.51
2023-03-17T15:10:07.440Z,31.97
2023-03-17T15:12:31.388Z,31.49
2023-03-17T15:14:59.239Z,31.93
2023-03-17T15:17:36.175Z,30.90
2023-03-17T15:20:04.567Z,31.80
2023-03-17T15:22:41.495Z,31.83
2023-03-17T15:25:23.251Z,32.03
2023-03-17T15:27:47.232Z,32.17
2023-03-17T15:30:12.302Z,32.08
2023-03-17T15:32:35.657Z,32.74
2023-03-17T15:34:58.313Z,33.16
2023-03-17T15:37:22.797Z,33.23
2023-03-17T15:39:46.793Z,33.23
2023-03-17T15:42:09.898Z,32.59
2023-03-17T15:44:32.503Z,33.53
2023-03-17T15:46:55.118Z,33.00
2023-03-17T15:49:18.127Z,33.19
2023-03-17T15:51:41.263Z,33.19
2023-03-17T15:54:04.734Z,33.35
2023-03-17T15:56:27.858Z,33.43
2023-03-17T15:58:52.464Z,33.98
2023-03-17T16:01:16.538Z,34.16
2023-03-17T16:03:41.630Z,34.41
2023-03-17T16:06:07.412Z,34.44
2023-03-17T16:08:30.228Z,34.80
2023-03-17T16:10:53.155Z,34.47
2023-03-17T16:13:15.824Z,35.27
2023-03-17T16:15:41.604Z,35.57
2023-03-17T16:18:08.349Z,35.81
2023-03-17T16:20:41.793Z,35.65
2023-03-17T16:23:08.802Z,35.98
2023-03-17T16:25:32.515Z,35.60
2023-03-17T16:27:57.519Z,36.52
2023-03-17T16:30:41.068Z,36.13
2023-03-17T16:33:16.158Z,36.57
2023-03-17T16:35:38.739Z,36.56
2023-03-17T16:38:02.068Z,37.15
2023-03-17T16:40:29.068Z,37.42
2023-03-17T16:42:52.468Z,37.71
2023-03-17T16:45:35.710Z,38.13
2023-03-17T16:47:59.200Z,38.20
2023-03-17T16:50:25.180Z,38.46
2023-03-17T16:52:48.039Z,38.72
2023-03-17T16:55:10.984Z,38.17
2023-03-17T16:57:33.888Z,38.25
2023-03-17T16:59:57.917Z,38.14
2023-03-17T17:02:20.870Z,38.32
2023-03-17T17:04:43.580Z,39.07
2023-03-17T17:07:06.285Z,39.11
2023-03-17T17:09:28.986Z,39.21
2023-03-17T17:11:51.692Z,39.44
2023-03-17T17:14:15.808Z,39.63
2023-03-17T17:16:40.402Z,40.17
2023-03-17T17:19:04.349Z,39.92
2023-03-17T17:21:27.873Z,40.14
2023-03-17T17:23:52.889Z,40.46
2023-03-17T17:26:15.816Z,40.86
2023-03-17T17:28:40.264Z,41.12
2023-03-17T17:31:03.476Z,40.95
2023-03-17T17:33:26.413Z,41.33
2023-03-17T17:35:51.293Z,41.57
2023-03-17T17:38:23.311Z,41.36
2023-03-17T17:40:46.058Z,41.67
2023-03-17T17:43:10.009Z,41.80
2023-03-17T17:45:32.960Z,41.73
2023-03-17T17:47:55.884Z,41.94
2023-03-17T17:50:29.227Z,41.81
2023-03-17T17:52:52.672Z,41.80
2023-03-17T17:55:16.417Z,42.11
2023-03-17T17:57:39.496Z,42.34
2023-03-17T18:00:03.158Z,42.17
2023-03-17T18:02:31.812Z,42.27
2023-03-17T18:04:54.701Z,42.30
2023-03-17T18:07:17.705Z,42.64
2023-03-17T18:09:40.928Z,42.86
2023-03-17T18:12:03.974Z,42.59
2023-03-17T18:14:27.754Z,42.63
2023-03-17T18:16:51.194Z,43.03
2023-03-17T18:19:14.384Z,42.94
2023-03-17T18:21:37.649Z,43.09
2023-03-17T18:24:00.761Z,42.97
2023-03-17T18:26:24.679Z,43.38
2023-03-17T18:28:48.690Z,43.56
2023-03-17T18:31:16.588Z,44.40
2023-03-17T18:33:41.791Z,44.64
2023-03-17T18:36:08.813Z,45.68
2023-03-17T18:38:32.600Z,45.84
2023-03-17T18:40:55.585Z,45.77
2023-03-17T18:43:18.855Z,45.66
2023-03-17T18:45:41.889Z,45.64
2023-03-17T18:48:04.950Z,45.76
2023-03-17T18:50:27.893Z,47.94
2023-03-17T18:52:50.638Z,48.53
2023-03-17T18:55:14.688Z,49.03
2023-03-17T18:57:37.713Z,48.97
2023-03-17T19:00:00.706Z,49.29
2023-03-17T19:02:24.138Z,49.21
2023-03-17T19:04:47.838Z,49.55
2023-03-17T19:07:10.893Z,50.08
2023-03-17T19:09:34.385Z,49.89
2023-03-17T19:11:58.288Z,50.41
2023-03-17T19:14:22.044Z,49.96
2023-03-17T19:16:45.046Z,50.02
2023-03-17T19:19:08.657Z,50.37
2023-03-17T19:21:31.471Z,50.33
2023-03-17T19:23:55.269Z,50.69
2023-03-17T19:26:20.250Z,51.29
2023-03-17T19:28:44.092Z,51.38
2023-03-17T19:31:07.573Z,51.82
2023-03-17T19:33:32.450Z,51.67
2023-03-17T19:35:58.708Z,51.72
2023-03-17T19:38:24.092Z,52.02
2023-03-17T19:40:46.799Z,51.97
2023-03-17T19:43:09.849Z,53.03
2023-03-17T19:45:33.192Z,53.44
2023-03-17T19:47:56.576Z,53.78
2023-03-17T19:50:20.616Z,53.84
2023-03-17T19:52:43.628Z,54.04
2023-03-17T19:55:08.415Z,54.45
2023-03-17T19:57:32.178Z,54.45
2023-03-17T19:59:55.160Z,54.55
2023-03-17T20:02:18.127Z,55.19
2023-03-17T20:04:41.247Z,54.91
2023-03-17T20:07:04.031Z,55.03
2023-03-17T20:09:27.836Z,55.31
2023-03-17T20:11:52.437Z,55.52
2023-03-17T20:14:15.081Z,55.60
2023-03-17T20:16:39.285Z,55.83
2023-03-17T20:19:03.891Z,56.25
2023-03-17T20:21:26.920Z,55.96
2023-03-17T20:23:49.506Z,56.22
2023-03-17T20:26:12.861Z,55.97
2023-03-17T20:28:36.663Z,56.10
2023-03-17T20:31:02.999Z,56.47
2023-03-17T20:33:26.608Z,56.83
2023-03-17T20:35:49.697Z,56.48
2023-03-17T20:38:13.511Z,55.82
2023-03-17T20:40:36.512Z,56.03
2023-03-17T20:43:01.117Z,56.19
2023-03-17T20:45:24.504Z,55.96
2023-03-17T20:47:48.092Z,55.22
2023-03-17T20:50:13.120Z,55.66
2023-03-17T20:52:37.273Z,55.80
2023-03-17T20:55:02.393Z,55.47
2023-03-17T20:57:26.366Z,55.79
2023-03-17T20:59:51.332Z,55.02
2023-03-17T21:02:17.454Z,55.63
2023-03-17T21:04:41.621Z,55.36
2023-03-17T21:07:04.751Z,55.87
2023-03-17T21:09:28.371Z,56.13
2023-03-17T21:11:51.420Z,56.33
2023-03-17T21:14:14.234Z,56.16
2023-03-17T21:16:37.246Z,56.48
2023-03-17T21:19:00.820Z,56.43
2023-03-17T21:21:25.125Z,56.40
2023-03-17T21:23:48.281Z,57.13
2023-03-17T21:26:12.146Z,57.34
2023-03-17T21:28:36.479Z,56.95
2023-03-17T21:30:59.083Z,56.82
2023-03-17T21:33:22.487Z,56.84
2023-03-17T21:35:45.595Z,56.82
2023-03-17T21:38:08.948Z,56.80
2023-03-17T21:40:31.979Z,56.12
2023-03-17T21:42:55.460Z,56.36
2023-03-17T21:45:18.810Z,55.52
2023-03-17T21:47:42.560Z,56.59
2023-03-17T21:50:05.712Z,56.30
2023-03-17T21:52:28.374Z,56.20
2023-03-17T21:54:51.276Z,55.91
2023-03-17T21:57:14.090Z,55.32
2023-03-17T21:59:37.070Z,55.27
2023-03-17T22:02:00.402Z,55.00
2023-03-17T22:04:23.048Z,55.41
2023-03-17T22:06:45.764Z,55.00
2023-03-17T22:09:08.750Z,54.82
2023-03-17T22:11:31.658Z,54.53
2023-03-17T22:13:54.254Z,54.50
2023-03-17T22:16:18.423Z,55.38
2023-03-17T22:18:41.665Z,55.34
2023-03-17T22:21:05.872Z,55.59
2023-03-17T22:23:29.197Z,54.76
2023-03-17T22:25:52.447Z,54.58
2023-03-17T22:28:17.426Z,54.31
2023-03-17T22:30:40.347Z,55.41
2023-03-17T22:33:03.023Z,55.36
2023-03-17T22:35:25.995Z,56.07
2023-03-17T22:37:48.577Z,56.06
2023-03-17T22:40:11.733Z,56.52
2023-03-17T22:42:34.716Z,56.62
2023-03-17T22:44:57.347Z,57.15
2023-03-17T22:47:19.979Z,59.47
2023-03-17T22:49:43.004Z,61.19
2023-03-17T22:52:06.114Z,63.42
2023-03-17T22:54:28.714Z,64.51
2023-03-17T22:56:51.308Z,64.32
2023-03-17T22:59:13.983Z,63.90
2023-03-17T23:01:36.890Z,63.56
2023-03-17T23:03:59.881Z,63.69
2023-03-17T23:06:23.207Z,64.06
2023-03-17T23:08:46.943Z,63.59
2023-03-17T23:11:16.414Z,62.85
2023-03-17T23:13:40.572Z,62.79
2023-03-17T23:16:04.835Z,63.67
2023-03-17T23:18:27.847Z,64.51
2023-03-17T23:20:51.070Z,63.71
2023-03-17T23:23:14.206Z,63.68
2023-03-17T23:25:38.170Z,63.67
2023-03-17T23:28:01.716Z,63.48
2023-03-17T23:30:24.586Z,63.70
2023-03-17T23:32:49.236Z,63.88
2023-03-17T23:35:13.540Z,63.77
2023-03-17T23:37:37.042Z,64.26
2023-03-17T23:39:59.769Z,64.59
2023-03-17T23:42:22.567Z,65.05
2023-03-17T23:44:45.462Z,65.40
2023-03-17T23:47:09.728Z,65.69
2023-03-17T23:49:32.376Z,64.70
2023-03-17T23:51:55.103Z,63.70
2023-03-17T23:54:17.620Z,62.23
2023-03-17T23:56:41.116Z,62.34
2023-03-17T23:59:04.126Z,63.05
